sensor_id;sensor_type;location;lat;lon;timestamp;temperature;humidity
17762;DHT22;9005;48.838;10.112;2023-06-24T00:04:11;16.80;99.90
17762;DHT22;9005;48.838;10.112;2023-06-24T00:06:40;16.60;99.90
17762;DHT22;9005;48.838;10.112;2023-06-24T00:09:07;15.50;99.90
17762;DHT22;9005;48.838;10.112;2023-06-24T00:11:34;16.80;99.90
17762;DHT22;9005;48.838;10.112;2023-06-24T00:33:45;16.60;1.00
17762;DHT22;9005;48.838;10.112;2023-06-24T00:41:07;16.60;1.00
17762;DHT22;9005;48.838;10.112;2023-06-24T00:50:58;16.50;1.00
17762;DHT22;9005;48.838;10.112;2023-06-24T01:00:49;16.50;1.00
17762;DHT22;9005;48.838;10.112;2023-06-24T01:08:19;16.40;1.00
17762;DHT22;9005;48.838;10.112;2023-06-24T01:20:44;16.10;1.00
17762;DHT22;9005;48.838;10.112;2023-06-24T01:23:38;15.90;1.00
17762;DHT22;9005;48.838;10.112;2023-06-24T01:26:31;16.00;1.00
17762;DHT22;9005;48.838;10.112;2023-06-24T01:29:16;15.70;1.00
17762;DHT22;9005;48.838;10.112;2023-06-24T01:34:24;16.00;11.80
17762;DHT22;9005;48.838;10.112;2023-06-24T01:37:00;15.60;29.40
17762;DHT22;9005;48.838;10.112;2023-06-24T01:39:33;15.60;48.60
17762;DHT22;9005;48.838;10.112;2023-06-24T01:42:07;15.50;60.00
17762;DHT22;9005;48.838;10.112;2023-06-24T01:47:05;15.40;79.50
17762;DHT22;9005;48.838;10.112;2023-06-24T01:49:38;15.30;87.10
17762;DHT22;9005;48.838;10.112;2023-06-24T01:52:07;15.10;94.70
17762;DHT22;9005;48.838;10.112;2023-06-24T02:04:28;14.80;99.90
17762;DHT22;9005;48.838;10.112;2023-06-24T02:06:58;14.80;99.90
17762;DHT22;9005;48.838;10.112;2023-06-24T02:16:50;14.60;99.90
17762;DHT22;9005;48.838;10.112;2023-06-24T02:26:47;14.30;99.90
17762;DHT22;9005;48.838;10.112;2023-06-24T02:39:04;14.10;99.90
17762;DHT22;9005;48.838;10.112;2023-06-24T02:41:31;13.90;95.10
17762;DHT22;9005;48.838;10.112;2023-06-24T02:43:58;13.80;94.60
17762;DHT22;9005;48.838;10.112;2023-06-24T02:46:25;13.80;94.80
17762;DHT22;9005;48.838;10.112;2023-06-24T02:48:56;13.80;96.40
17762;DHT22;9005;48.838;10.112;2023-06-24T02:51:23;13.70;98.00
17762;DHT22;9005;48.838;10.112;2023-06-24T02:53:50;13.70;99.90
17762;DHT22;9005;48.838;10.112;2023-06-24T02:56:19;13.70;99.90
17762;DHT22;9005;48.838;10.112;2023-06-24T02:58:48;13.70;99.90
17762;DHT22;9005;48.838;10.112;2023-06-24T03:01:15;13.50;99.90
17762;DHT22;9005;48.838;10.112;2023-06-24T03:03:43;13.60;99.90
17762;DHT22;9005;48.838;10.112;2023-06-24T03:06:14;13.50;99.90
17762;DHT22;9005;48.838;10.112;2023-06-24T03:08:43;13.60;99.90
17762;DHT22;9005;48.838;10.112;2023-06-24T03:11:12;13.60;99.90
17762;DHT22;9005;48.838;10.112;2023-06-24T03:13:41;13.40;99.90
17762;DHT22;9005;48.838;10.112;2023-06-24T03:16:08;13.40;99.90
17762;DHT22;9005;48.838;10.112;2023-06-24T03:18:37;13.40;99.90
17762;DHT22;9005;48.838;10.112;2023-06-24T03:21:05;13.30;99.90
17762;DHT22;9005;48.838;10.112;2023-06-24T03:23:32;13.30;99.90
17762;DHT22;9005;48.838;10.112;2023-06-24T03:25:59;13.50;99.90
17762;DHT22;9005;48.838;10.112;2023-06-24T03:28:25;13.40;99.90
17762;DHT22;9005;48.838;10.112;2023-06-24T03:30:53;13.30;99.90
17762;DHT22;9005;48.838;10.112;2023-06-24T03:33:20;13.40;99.90
17762;DHT22;9005;48.838;10.112;2023-06-24T03:35:47;13.80;99.90
17762;DHT22;9005;48.838;10.112;2023-06-24T03:38:14;14.30;99.90
17762;DHT22;9005;48.838;10.112;2023-06-24T03:40:40;13.30;99.90
17762;DHT22;9005;48.838;10.112;2023-06-24T03:43:07;13.20;99.90
17762;DHT22;9005;48.838;10.112;2023-06-24T03:45:34;13.70;99.90
17762;DHT22;9005;48.838;10.112;2023-06-24T03:48:02;13.20;99.90
17762;DHT22;9005;48.838;10.112;2023-06-24T03:50:29;13.20;99.90
17762;DHT22;9005;48.838;10.112;2023-06-24T03:52:55;13.20;99.90
17762;DHT22;9005;48.838;10.112;2023-06-24T03:55:22;13.20;99.90
17762;DHT22;9005;48.838;10.112;2023-06-24T03:57:49;13.20;99.90
17762;DHT22;9005;48.838;10.112;2023-06-24T04:00:16;13.60;99.90
17762;DHT22;9005;48.838;10.112;2023-06-24T04:02:46;13.20;99.90
17762;DHT22;9005;48.838;10.112;2023-06-24T04:05:15;13.30;99.90
17762;DHT22;9005;48.838;10.112;2023-06-24T04:07:41;13.20;99.90
17762;DHT22;9005;48.838;10.112;2023-06-24T04:10:12;13.30;99.90
17762;DHT22;9005;48.838;10.112;2023-06-24T04:12:39;13.90;99.90
17762;DHT22;9005;48.838;10.112;2023-06-24T04:15:07;13.30;99.90
17762;DHT22;9005;48.838;10.112;2023-06-24T04:17:34;13.30;99.90
17762;DHT22;9005;48.838;10.112;2023-06-24T04:20:01;13.60;99.90
17762;DHT22;9005;48.838;10.112;2023-06-24T04:22:31;14.00;99.90
17762;DHT22;9005;48.838;10.112;2023-06-24T04:24:57;13.40;99.90
17762;DHT22;9005;48.838;10.112;2023-06-24T04:27:24;13.50;99.90
17762;DHT22;9005;48.838;10.112;2023-06-24T04:29:51;13.50;99.90
17762;DHT22;9005;48.838;10.112;2023-06-24T04:32:18;13.50;99.90
17762;DHT22;9005;48.838;10.112;2023-06-24T04:34:45;13.60;99.90
17762;DHT22;9005;48.838;10.112;2023-06-24T04:37:11;13.50;99.90
17762;DHT22;9005;48.838;10.112;2023-06-24T04:39:39;13.60;99.90
17762;DHT22;9005;48.838;10.112;2023-06-24T04:42:06;13.90;99.90
17762;DHT22;9005;48.838;10.112;2023-06-24T04:44:33;13.90;99.90
17762;DHT22;9005;48.838;10.112;2023-06-24T04:47:00;14.10;99.90
17762;DHT22;9005;48.838;10.112;2023-06-24T04:49:27;13.80;99.90
17762;DHT22;9005;48.838;10.112;2023-06-24T04:51:54;13.90;99.90
17762;DHT22;9005;48.838;10.112;2023-06-24T04:54:21;13.80;99.90
17762;DHT22;9005;48.838;10.112;2023-06-24T04:56:49;14.20;99.90
17762;DHT22;9005;48.838;10.112;2023-06-24T04:59:17;14.30;99.90
17762;DHT22;9005;48.838;10.112;2023-06-24T05:01:43;14.30;99.90
17762;DHT22;9005;48.838;10.112;2023-06-24T05:04:10;14.50;99.90
17762;DHT22;9005;48.838;10.112;2023-06-24T05:06:37;15.50;99.90
17762;DHT22;9005;48.838;10.112;2023-06-24T05:09:03;14.50;99.90
17762;DHT22;9005;48.838;10.112;2023-06-24T05:11:30;14.50;99.90
17762;DHT22;9005;48.838;10.112;2023-06-24T05:13:58;14.60;99.90
17762;DHT22;9005;48.838;10.112;2023-06-24T05:16:25;14.80;99.90
17762;DHT22;9005;48.838;10.112;2023-06-24T05:18:52;14.90;99.90
17762;DHT22;9005;48.838;10.112;2023-06-24T05:21:18;15.00;99.90
17762;DHT22;9005;48.838;10.112;2023-06-24T05:23:45;15.00;99.90
17762;DHT22;9005;48.838;10.112;2023-06-24T05:26:12;15.50;99.90
17762;DHT22;9005;48.838;10.112;2023-06-24T05:28:38;16.20;99.90
17762;DHT22;9005;48.838;10.112;2023-06-24T05:31:06;15.40;99.90
17762;DHT22;9005;48.838;10.112;2023-06-24T05:33:33;15.40;99.90
17762;DHT22;9005;48.838;10.112;2023-06-24T05:36:00;15.70;99.90
17762;DHT22;9005;48.838;10.112;2023-06-24T05:38:27;15.70;99.20
17762;DHT22;9005;48.838;10.112;2023-06-24T05:40:53;16.00;87.20
17762;DHT22;9005;48.838;10.112;2023-06-24T05:43:20;16.00;64.40
17762;DHT22;9005;48.838;10.112;2023-06-24T05:45:47;16.10;88.00
17762;DHT22;9005;48.838;10.112;2023-06-24T05:48:15;16.10;44.80
17762;DHT22;9005;48.838;10.112;2023-06-24T05:50:42;16.20;1.00
17762;DHT22;9005;48.838;10.112;2023-06-24T05:53:08;16.40;1.00
17762;DHT22;9005;48.838;10.112;2023-06-24T06:00:29;16.80;1.00
17762;DHT22;9005;48.838;10.112;2023-06-24T06:02:56;16.80;1.00
17762;DHT22;9005;48.838;10.112;2023-06-24T06:05:24;17.20;1.00
17762;DHT22;9005;48.838;10.112;2023-06-24T06:07:51;17.20;1.00
17762;DHT22;9005;48.838;10.112;2023-06-24T06:10:19;17.10;1.00
17762;DHT22;9005;48.838;10.112;2023-06-24T06:12:46;17.40;1.00
17762;DHT22;9005;48.838;10.112;2023-06-24T06:15:13;17.50;1.00
17762;DHT22;9005;48.838;10.112;2023-06-24T06:17:40;18.70;99.90
17762;DHT22;9005;48.838;10.112;2023-06-24T06:20:08;17.50;1.00
17762;DHT22;9005;48.838;10.112;2023-06-24T06:22:36;17.60;99.90
17762;DHT22;9005;48.838;10.112;2023-06-24T06:25:05;18.20;99.90
17762;DHT22;9005;48.838;10.112;2023-06-24T06:27:31;17.60;99.90
17762;DHT22;9005;48.838;10.112;2023-06-24T06:29:58;17.80;99.90
17762;DHT22;9005;48.838;10.112;2023-06-24T06:32:25;17.90;99.90
17762;DHT22;9005;48.838;10.112;2023-06-24T06:52:05;18.40;60.80
17762;DHT22;9005;48.838;10.112;2023-06-24T06:54:32;18.40;2.00
17762;DHT22;9005;48.838;10.112;2023-06-24T06:57:02;18.60;1.00
17762;DHT22;9005;48.838;10.112;2023-06-24T06:59:29;18.50;1.00
17762;DHT22;9005;48.838;10.112;2023-06-24T07:01:55;18.50;1.00
17762;DHT22;9005;48.838;10.112;2023-06-24T07:04:22;18.70;1.00
17762;DHT22;9005;48.838;10.112;2023-06-24T07:06:49;18.50;1.00
17762;DHT22;9005;48.838;10.112;2023-06-24T07:09:16;18.60;1.00
17762;DHT22;9005;48.838;10.112;2023-06-24T07:11:43;18.70;99.90
17762;DHT22;9005;48.838;10.112;2023-06-24T07:14:11;18.70;99.90
17762;DHT22;9005;48.838;10.112;2023-06-24T07:16:38;18.80;99.90
17762;DHT22;9005;48.838;10.112;2023-06-24T07:19:04;18.90;99.90
17762;DHT22;9005;48.838;10.112;2023-06-24T07:21:31;19.10;99.90
17762;DHT22;9005;48.838;10.112;2023-06-24T07:23:58;19.10;1.00
17762;DHT22;9005;48.838;10.112;2023-06-24T07:26:25;19.30;99.90
17762;DHT22;9005;48.838;10.112;2023-06-24T07:28:55;18.70;99.90
17762;DHT22;9005;48.838;10.112;2023-06-24T07:31:24;19.40;99.90
17762;DHT22;9005;48.838;10.112;2023-06-24T07:33:50;19.50;99.90
17762;DHT22;9005;48.838;10.112;2023-06-24T07:36:17;19.80;99.90
17762;DHT22;9005;48.838;10.112;2023-06-24T07:38:45;19.60;99.90
17762;DHT22;9005;48.838;10.112;2023-06-24T07:41:11;19.70;99.90
17762;DHT22;9005;48.838;10.112;2023-06-24T07:43:38;19.90;99.90
17762;DHT22;9005;48.838;10.112;2023-06-24T07:46:05;19.90;99.90
17762;DHT22;9005;48.838;10.112;2023-06-24T07:48:33;20.10;99.90
17762;DHT22;9005;48.838;10.112;2023-06-24T07:51:00;20.50;99.90
17762;DHT22;9005;48.838;10.112;2023-06-24T07:53:26;20.00;99.90
17762;DHT22;9005;48.838;10.112;2023-06-24T07:55:53;20.30;99.90
17762;DHT22;9005;48.838;10.112;2023-06-24T07:58:20;20.40;99.90
17762;DHT22;9005;48.838;10.112;2023-06-24T08:00:46;20.70;99.90
17762;DHT22;9005;48.838;10.112;2023-06-24T08:03:13;20.40;99.90
17762;DHT22;9005;48.838;10.112;2023-06-24T08:05:42;20.60;99.90
17762;DHT22;9005;48.838;10.112;2023-06-24T08:08:08;20.80;99.90
17762;DHT22;9005;48.838;10.112;2023-06-24T08:10:35;21.00;99.90
17762;DHT22;9005;48.838;10.112;2023-06-24T08:13:02;20.80;99.90
17762;DHT22;9005;48.838;10.112;2023-06-24T08:15:29;20.80;99.90
17762;DHT22;9005;48.838;10.112;2023-06-24T08:17:55;20.90;99.90
17762;DHT22;9005;48.838;10.112;2023-06-24T08:22:51;21.00;45.10
17762;DHT22;9005;48.838;10.112;2023-06-24T08:25:18;20.90;26.50
17762;DHT22;9005;48.838;10.112;2023-06-24T08:27:45;20.80;68.10
17762;DHT22;9005;48.838;10.112;2023-06-24T08:30:13;20.70;99.90
17762;DHT22;9005;48.838;10.112;2023-06-24T08:32:40;20.70;52.10
17762;DHT22;9005;48.838;10.112;2023-06-24T08:35:07;20.10;65.30
17762;DHT22;9005;48.838;10.112;2023-06-24T08:37:35;20.70;99.90
17762;DHT22;9005;48.838;10.112;2023-06-24T08:40:05;20.50;99.90
17762;DHT22;9005;48.838;10.112;2023-06-24T08:42:32;20.60;99.90
17762;DHT22;9005;48.838;10.112;2023-06-24T08:44:59;21.00;99.90
17762;DHT22;9005;48.838;10.112;2023-06-24T08:47:27;21.10;99.90
17762;DHT22;9005;48.838;10.112;2023-06-24T08:50:01;21.40;70.10
17762;DHT22;9005;48.838;10.112;2023-06-24T08:52:31;21.40;1.00
17762;DHT22;9005;48.838;10.112;2023-06-24T08:54:59;21.50;61.50
17762;DHT22;9005;48.838;10.112;2023-06-24T08:57:29;21.60;66.20
17762;DHT22;9005;48.838;10.112;2023-06-24T08:59:55;21.80;1.00
17762;DHT22;9005;48.838;10.112;2023-06-24T09:02:23;22.40;1.00
17762;DHT22;9005;48.838;10.112;2023-06-24T09:04:50;22.60;1.00
17762;DHT22;9005;48.838;10.112;2023-06-24T09:07:25;22.40;1.00
17762;DHT22;9005;48.838;10.112;2023-06-24T09:09:53;22.50;1.00
17762;DHT22;9005;48.838;10.112;2023-06-24T09:12:20;23.20;1.00
17762;DHT22;9005;48.838;10.112;2023-06-24T09:14:49;23.40;1.00
17762;DHT22;9005;48.838;10.112;2023-06-24T09:17:17;22.90;1.00
17762;DHT22;9005;48.838;10.112;2023-06-24T09:19:46;23.10;1.00
17762;DHT22;9005;48.838;10.112;2023-06-24T09:22:13;22.80;1.00
17762;DHT22;9005;48.838;10.112;2023-06-24T09:24:43;23.30;1.00
17762;DHT22;9005;48.838;10.112;2023-06-24T09:27:12;23.40;3.90
17762;DHT22;9005;48.838;10.112;2023-06-24T09:29:41;23.80;1.00
17762;DHT22;9005;48.838;10.112;2023-06-24T09:32:10;24.10;1.00
17762;DHT22;9005;48.838;10.112;2023-06-24T09:34:37;23.70;1.00
17762;DHT22;9005;48.838;10.112;2023-06-24T09:37:04;24.60;1.00
17762;DHT22;9005;48.838;10.112;2023-06-24T09:39:35;24.80;3.10
17762;DHT22;9005;48.838;10.112;2023-06-24T09:42:04;24.20;1.00
17762;DHT22;9005;48.838;10.112;2023-06-24T09:44:32;24.00;1.00
17762;DHT22;9005;48.838;10.112;2023-06-24T09:46:59;24.00;1.00
17762;DHT22;9005;48.838;10.112;2023-06-24T09:49:27;23.90;1.00
17762;DHT22;9005;48.838;10.112;2023-06-24T09:51:56;23.90;1.00
17762;DHT22;9005;48.838;10.112;2023-06-24T09:54:25;24.40;1.00
17762;DHT22;9005;48.838;10.112;2023-06-24T09:56:53;24.60;1.00
17762;DHT22;9005;48.838;10.112;2023-06-24T09:59:21;24.50;47.40
17762;DHT22;9005;48.838;10.112;2023-06-24T10:01:51;25.20;1.00
17762;DHT22;9005;48.838;10.112;2023-06-24T10:04:19;24.50;1.00
17762;DHT22;9005;48.838;10.112;2023-06-24T10:06:49;24.60;1.00
17762;DHT22;9005;48.838;10.112;2023-06-24T10:09:16;24.90;1.00
17762;DHT22;9005;48.838;10.112;2023-06-24T10:11:45;24.70;1.00
17762;DHT22;9005;48.838;10.112;2023-06-24T10:14:12;25.30;1.00
17762;DHT22;9005;48.838;10.112;2023-06-24T10:16:40;25.70;1.00
17762;DHT22;9005;48.838;10.112;2023-06-24T10:19:07;25.00;1.00
17762;DHT22;9005;48.838;10.112;2023-06-24T10:21:50;25.40;1.00
17762;DHT22;9005;48.838;10.112;2023-06-24T10:24:30;26.00;1.00
17762;DHT22;9005;48.838;10.112;2023-06-24T10:27:04;25.50;1.00
17762;DHT22;9005;48.838;10.112;2023-06-24T10:29:33;25.70;1.00
17762;DHT22;9005;48.838;10.112;2023-06-24T10:32:07;25.80;1.00
17762;DHT22;9005;48.838;10.112;2023-06-24T10:34:39;26.80;1.00
17762;DHT22;9005;48.838;10.112;2023-06-24T10:37:14;27.60;1.00
17762;DHT22;9005;48.838;10.112;2023-06-24T10:39:49;27.90;1.00
17762;DHT22;9005;48.838;10.112;2023-06-24T10:45:19;29.50;1.00
17762;DHT22;9005;48.838;10.112;2023-06-24T10:47:48;31.40;1.00
17762;DHT22;9005;48.838;10.112;2023-06-24T10:50:17;32.20;1.00
17762;DHT22;9005;48.838;10.112;2023-06-24T10:52:47;32.60;1.00
17762;DHT22;9005;48.838;10.112;2023-06-24T10:55:15;33.10;1.00
17762;DHT22;9005;48.838;10.112;2023-06-24T10:57:42;34.10;1.00
17762;DHT22;9005;48.838;10.112;2023-06-24T11:00:10;34.70;1.00
17762;DHT22;9005;48.838;10.112;2023-06-24T11:02:37;35.10;1.00
17762;DHT22;9005;48.838;10.112;2023-06-24T11:05:05;34.70;1.00
17762;DHT22;9005;48.838;10.112;2023-06-24T11:07:33;34.90;1.00
17762;DHT22;9005;48.838;10.112;2023-06-24T11:10:04;35.00;1.00
17762;DHT22;9005;48.838;10.112;2023-06-24T11:12:32;35.00;1.00
17762;DHT22;9005;48.838;10.112;2023-06-24T11:15:00;35.20;1.00
17762;DHT22;9005;48.838;10.112;2023-06-24T11:17:27;35.60;1.00
17762;DHT22;9005;48.838;10.112;2023-06-24T11:19:55;36.30;1.00
17762;DHT22;9005;48.838;10.112;2023-06-24T11:22:22;36.80;1.00
17762;DHT22;9005;48.838;10.112;2023-06-24T11:24:49;37.20;1.00
17762;DHT22;9005;48.838;10.112;2023-06-24T11:27:24;37.40;1.00
17762;DHT22;9005;48.838;10.112;2023-06-24T11:29:51;36.70;1.00
17762;DHT22;9005;48.838;10.112;2023-06-24T11:32:18;35.50;1.00
17762;DHT22;9005;48.838;10.112;2023-06-24T11:34:46;35.50;1.00
17762;DHT22;9005;48.838;10.112;2023-06-24T11:37:13;34.90;1.00
17762;DHT22;9005;48.838;10.112;2023-06-24T11:39:41;34.90;1.00
17762;DHT22;9005;48.838;10.112;2023-06-24T11:42:08;34.90;1.00
17762;DHT22;9005;48.838;10.112;2023-06-24T11:47:10;34.50;99.90
17762;DHT22;9005;48.838;10.112;2023-06-24T11:49:49;33.90;99.90
17762;DHT22;9005;48.838;10.112;2023-06-24T11:52:16;33.10;1.00
17762;DHT22;9005;48.838;10.112;2023-06-24T11:54:43;32.50;1.00
17762;DHT22;9005;48.838;10.112;2023-06-24T11:57:10;31.90;1.00
17762;DHT22;9005;48.838;10.112;2023-06-24T11:59:39;31.40;99.90
17762;DHT22;9005;48.838;10.112;2023-06-24T12:02:06;30.70;99.90
17762;DHT22;9005;48.838;10.112;2023-06-24T12:04:33;30.60;1.00
17762;DHT22;9005;48.838;10.112;2023-06-24T12:07:02;31.00;1.00
17762;DHT22;9005;48.838;10.112;2023-06-24T12:09:29;32.10;1.00
17762;DHT22;9005;48.838;10.112;2023-06-24T12:11:56;32.90;99.90
17762;DHT22;9005;48.838;10.112;2023-06-24T12:14:22;34.00;99.90
17762;DHT22;9005;48.838;10.112;2023-06-24T12:16:51;34.90;99.90
17762;DHT22;9005;48.838;10.112;2023-06-24T12:19:17;36.00;99.90
17762;DHT22;9005;48.838;10.112;2023-06-24T12:21:46;36.60;99.90
17762;DHT22;9005;48.838;10.112;2023-06-24T12:24:12;37.20;99.90
17762;DHT22;9005;48.838;10.112;2023-06-24T12:31:33;38.20;1.00
17762;DHT22;9005;48.838;10.112;2023-06-24T12:34:01;38.10;99.90
17762;DHT22;9005;48.838;10.112;2023-06-24T12:36:28;38.30;99.90
17762;DHT22;9005;48.838;10.112;2023-06-24T12:38:55;38.50;99.90
17762;DHT22;9005;48.838;10.112;2023-06-24T12:41:22;38.70;99.90
17762;DHT22;9005;48.838;10.112;2023-06-24T12:43:48;37.90;99.90
17762;DHT22;9005;48.838;10.112;2023-06-24T12:56:05;34.10;99.90
17762;DHT22;9005;48.838;10.112;2023-06-24T12:58:34;33.10;99.90
17762;DHT22;9005;48.838;10.112;2023-06-24T13:01:00;32.80;99.90
17762;DHT22;9005;48.838;10.112;2023-06-24T13:03:27;32.60;99.90
17762;DHT22;9005;48.838;10.112;2023-06-24T13:05:54;32.60;99.90
17762;DHT22;9005;48.838;10.112;2023-06-24T13:08:22;32.20;99.90
17762;DHT22;9005;48.838;10.112;2023-06-24T13:10:49;32.10;99.90
17762;DHT22;9005;48.838;10.112;2023-06-24T13:13:15;32.00;99.90
17762;DHT22;9005;48.838;10.112;2023-06-24T13:15:42;32.50;99.90
17762;DHT22;9005;48.838;10.112;2023-06-24T13:18:09;33.10;99.90
17762;DHT22;9005;48.838;10.112;2023-06-24T13:20:35;34.00;99.90
17762;DHT22;9005;48.838;10.112;2023-06-24T13:23:02;34.70;99.90
17762;DHT22;9005;48.838;10.112;2023-06-24T13:25:30;35.30;99.90
17762;DHT22;9005;48.838;10.112;2023-06-24T13:27:58;35.70;99.90
17762;DHT22;9005;48.838;10.112;2023-06-24T13:30:25;36.00;99.90
17762;DHT22;9005;48.838;10.112;2023-06-24T13:32:52;36.00;99.90
17762;DHT22;9005;48.838;10.112;2023-06-24T13:35:18;36.10;99.90
17762;DHT22;9005;48.838;10.112;2023-06-24T13:37:45;36.30;99.90
17762;DHT22;9005;48.838;10.112;2023-06-24T13:40:12;36.40;99.90
17762;DHT22;9005;48.838;10.112;2023-06-24T13:42:40;36.40;99.90
17762;DHT22;9005;48.838;10.112;2023-06-24T13:45:07;36.80;99.90
17762;DHT22;9005;48.838;10.112;2023-06-24T13:47:34;37.20;99.90
17762;DHT22;9005;48.838;10.112;2023-06-24T13:50:01;37.80;99.90
17762;DHT22;9005;48.838;10.112;2023-06-24T13:52:28;38.40;99.90
17762;DHT22;9005;48.838;10.112;2023-06-24T13:59:50;39.40;1.00
17762;DHT22;9005;48.838;10.112;2023-06-24T14:02:17;39.40;1.00
17762;DHT22;9005;48.838;10.112;2023-06-24T14:04:44;39.60;1.00
17762;DHT22;9005;48.838;10.112;2023-06-24T14:07:11;39.60;1.00
17762;DHT22;9005;48.838;10.112;2023-06-24T14:09:38;39.80;1.00
17762;DHT22;9005;48.838;10.112;2023-06-24T14:12:06;39.70;1.00
17762;DHT22;9005;48.838;10.112;2023-06-24T14:14:34;39.70;1.00
17762;DHT22;9005;48.838;10.112;2023-06-24T14:17:03;39.50;1.00
17762;DHT22;9005;48.838;10.112;2023-06-24T14:19:34;39.20;1.00
17762;DHT22;9005;48.838;10.112;2023-06-24T14:22:00;38.80;1.00
17762;DHT22;9005;48.838;10.112;2023-06-24T14:24:27;38.70;99.90
17762;DHT22;9005;48.838;10.112;2023-06-24T14:26:54;38.90;99.90
17762;DHT22;9005;48.838;10.112;2023-06-24T14:29:21;39.00;99.90
17762;DHT22;9005;48.838;10.112;2023-06-24T14:31:47;39.20;99.90
17762;DHT22;9005;48.838;10.112;2023-06-24T14:34:16;39.40;99.90
17762;DHT22;9005;48.838;10.112;2023-06-24T14:36:44;39.50;99.90
17762;DHT22;9005;48.838;10.112;2023-06-24T14:39:14;39.80;99.90
17762;DHT22;9005;48.838;10.112;2023-06-24T14:44:09;40.40;99.90
17762;DHT22;9005;48.838;10.112;2023-06-24T14:53:58;37.80;1.00
17762;DHT22;9005;48.838;10.112;2023-06-24T14:56:25;37.30;1.00
17762;DHT22;9005;48.838;10.112;2023-06-24T14:58:51;37.00;1.00
17762;DHT22;9005;48.838;10.112;2023-06-24T15:01:18;36.90;1.00
17762;DHT22;9005;48.838;10.112;2023-06-24T15:03:45;37.50;1.00
17762;DHT22;9005;48.838;10.112;2023-06-24T15:06:11;37.50;1.00
17762;DHT22;9005;48.838;10.112;2023-06-24T15:08:39;37.40;1.00
17762;DHT22;9005;48.838;10.112;2023-06-24T15:11:06;37.30;1.00
17762;DHT22;9005;48.838;10.112;2023-06-24T15:13:33;36.40;1.00
17762;DHT22;9005;48.838;10.112;2023-06-24T15:16:00;36.40;1.00
17762;DHT22;9005;48.838;10.112;2023-06-24T15:18:27;35.70;1.00
17762;DHT22;9005;48.838;10.112;2023-06-24T15:20:53;35.70;1.00
17762;DHT22;9005;48.838;10.112;2023-06-24T15:23:22;36.70;1.00
17762;DHT22;9005;48.838;10.112;2023-06-24T15:25:50;36.70;1.00
17762;DHT22;9005;48.838;10.112;2023-06-24T15:28:17;37.40;1.00
17762;DHT22;9005;48.838;10.112;2023-06-24T15:30:44;37.80;1.00
17762;DHT22;9005;48.838;10.112;2023-06-24T15:33:11;37.70;1.00
17762;DHT22;9005;48.838;10.112;2023-06-24T15:35:37;38.80;1.00
17762;DHT22;9005;48.838;10.112;2023-06-24T15:38:04;39.20;1.00
17762;DHT22;9005;48.838;10.112;2023-06-24T15:40:31;39.30;1.00
17762;DHT22;9005;48.838;10.112;2023-06-24T15:42:59;39.00;1.00
17762;DHT22;9005;48.838;10.112;2023-06-24T15:45:26;38.70;99.90
17762;DHT22;9005;48.838;10.112;2023-06-24T15:47:53;37.90;99.90
17762;DHT22;9005;48.838;10.112;2023-06-24T15:50:20;36.60;99.90
17762;DHT22;9005;48.838;10.112;2023-06-24T15:52:47;36.40;99.90
17762;DHT22;9005;48.838;10.112;2023-06-24T15:55:13;36.50;1.00
17762;DHT22;9005;48.838;10.112;2023-06-24T15:57:40;36.50;99.90
17762;DHT22;9005;48.838;10.112;2023-06-24T16:00:09;37.00;99.90
17762;DHT22;9005;48.838;10.112;2023-06-24T16:02:36;37.20;99.90
17762;DHT22;9005;48.838;10.112;2023-06-24T16:05:03;37.30;99.90
17762;DHT22;9005;48.838;10.112;2023-06-24T16:07:32;37.30;1.00
17762;DHT22;9005;48.838;10.112;2023-06-24T16:09:59;37.90;99.90
17762;DHT22;9005;48.838;10.112;2023-06-24T16:12:26;37.30;99.90
17762;DHT22;9005;48.838;10.112;2023-06-24T16:14:52;37.90;99.90
17762;DHT22;9005;48.838;10.112;2023-06-24T16:17:20;38.10;99.90
17762;DHT22;9005;48.838;10.112;2023-06-24T16:19:47;37.90;1.00
17762;DHT22;9005;48.838;10.112;2023-06-24T16:22:14;38.50;1.00
17762;DHT22;9005;48.838;10.112;2023-06-24T16:24:41;38.30;99.90
17762;DHT22;9005;48.838;10.112;2023-06-24T16:27:07;38.50;99.90
17762;DHT22;9005;48.838;10.112;2023-06-24T16:29:34;38.80;99.90
17762;DHT22;9005;48.838;10.112;2023-06-24T16:32:01;39.40;99.90
17762;DHT22;9005;48.838;10.112;2023-06-24T16:34:29;39.60;99.90
17762;DHT22;9005;48.838;10.112;2023-06-24T16:36:56;40.00;99.90
17762;DHT22;9005;48.838;10.112;2023-06-24T16:39:22;39.40;99.90
17762;DHT22;9005;48.838;10.112;2023-06-24T16:41:49;39.40;99.90
17762;DHT22;9005;48.838;10.112;2023-06-24T16:44:16;39.60;99.90
17762;DHT22;9005;48.838;10.112;2023-06-24T16:46:43;39.60;99.90
17762;DHT22;9005;48.838;10.112;2023-06-24T16:49:09;39.80;1.00
17762;DHT22;9005;48.838;10.112;2023-06-24T16:51:37;39.70;99.90
17762;DHT22;9005;48.838;10.112;2023-06-24T16:54:06;40.10;1.00
17762;DHT22;9005;48.838;10.112;2023-06-24T16:56:32;39.80;1.00
17762;DHT22;9005;48.838;10.112;2023-06-24T16:58:59;40.10;1.00
17762;DHT22;9005;48.838;10.112;2023-06-24T17:01:26;39.70;1.00
17762;DHT22;9005;48.838;10.112;2023-06-24T17:03:53;39.10;99.90
17762;DHT22;9005;48.838;10.112;2023-06-24T17:06:19;39.50;99.90
17762;DHT22;9005;48.838;10.112;2023-06-24T17:08:48;39.30;99.90
17762;DHT22;9005;48.838;10.112;2023-06-24T17:11:14;38.80;1.00
17762;DHT22;9005;48.838;10.112;2023-06-24T17:13:41;39.30;99.90
17762;DHT22;9005;48.838;10.112;2023-06-24T17:16:08;38.70;99.90
17762;DHT22;9005;48.838;10.112;2023-06-24T17:18:34;38.70;99.90
17762;DHT22;9005;48.838;10.112;2023-06-24T17:21:01;38.90;99.90
17762;DHT22;9005;48.838;10.112;2023-06-24T17:30:50;37.10;1.00
17762;DHT22;9005;48.838;10.112;2023-06-24T17:33:17;36.90;1.00
17762;DHT22;9005;48.838;10.112;2023-06-24T17:35:44;36.80;1.00
17762;DHT22;9005;48.838;10.112;2023-06-24T18:05:17;33.50;99.90
17762;DHT22;9005;48.838;10.112;2023-06-24T18:07:43;32.40;99.90
17762;DHT22;9005;48.838;10.112;2023-06-24T18:10:10;31.80;1.00
17762;DHT22;9005;48.838;10.112;2023-06-24T18:12:37;31.60;99.90
17762;DHT22;9005;48.838;10.112;2023-06-24T18:15:07;31.10;1.00
17762;DHT22;9005;48.838;10.112;2023-06-24T18:17:35;30.60;99.90
17762;DHT22;9005;48.838;10.112;2023-06-24T18:20:02;30.10;99.90
17762;DHT22;9005;48.838;10.112;2023-06-24T18:22:29;29.60;1.00
17762;DHT22;9005;48.838;10.112;2023-06-24T18:24:55;29.10;1.00
17762;DHT22;9005;48.838;10.112;2023-06-24T18:27:22;28.80;1.00
17762;DHT22;9005;48.838;10.112;2023-06-24T18:29:49;28.60;1.00
17762;DHT22;9005;48.838;10.112;2023-06-24T18:32:15;28.30;1.00
17762;DHT22;9005;48.838;10.112;2023-06-24T18:34:44;28.00;1.00
17762;DHT22;9005;48.838;10.112;2023-06-24T18:37:11;27.60;1.00
17762;DHT22;9005;48.838;10.112;2023-06-24T18:39:38;27.50;1.00
17762;DHT22;9005;48.838;10.112;2023-06-24T18:42:05;27.50;1.00
17762;DHT22;9005;48.838;10.112;2023-06-24T18:44:32;27.60;1.00
17762;DHT22;9005;48.838;10.112;2023-06-24T18:46:58;28.00;1.00
17762;DHT22;9005;48.838;10.112;2023-06-24T18:49:25;27.90;1.00
17762;DHT22;9005;48.838;10.112;2023-06-24T18:51:53;27.90;1.00